sensor_id;sensor_type;location;lat;lon;timestamp;pressure;altitude;pressure_sealevel;temperature;humidity
43553;BME280;29153;42.696;23.218;2024-01-25T00:00:43;95019.03;;;0.99;100.00
43553;BME280;29153;42.696;23.218;2024-01-25T00:03:11;95022.84;;;1.03;100.00
43553;BME280;29153;42.696;23.218;2024-01-25T00:05:38;95015.70;;;1.21;100.00
43553;BME280;29153;42.696;23.218;2024-01-25T00:08:06;95007.19;;;1.23;100.00
43553;BME280;29153;42.696;23.218;2024-01-25T00:10:34;95005.16;;;1.25;100.00
43553;BME280;29153;42.696;23.218;2024-01-25T00:13:01;94993.63;;;1.17;100.00
43553;BME280;29153;42.696;23.218;2024-01-25T00:15:29;94981.11;;;1.10;100.00
43553;BME280;29153;42.696;23.218;2024-01-25T00:17:56;94961.55;;;1.10;100.00
43553;BME280;29153;42.696;23.218;2024-01-25T00:20:24;94932.36;;;1.10;100.00
43553;BME280;29153;42.696;23.218;2024-01-25T00:22:52;94918.13;;;1.06;100.00
43553;BME280;29153;42.696;23.218;2024-01-25T00:25:19;94904.63;;;1.16;100.00
43553;BME280;29153;42.696;23.218;2024-01-25T00:27:47;94894.53;;;1.10;100.00
43553;BME280;29153;42.696;23.218;2024-01-25T00:30:15;94897.64;;;1.10;100.00
43553;BME280;29153;42.696;23.218;2024-01-25T00:32:42;94897.75;;;1.06;100.00
43553;BME280;29153;42.696;23.218;2024-01-25T00:35:11;94902.55;;;1.09;100.00
43553;BME280;29153;42.696;23.218;2024-01-25T00:37:43;94902.32;;;1.17;100.00
43553;BME280;29153;42.696;23.218;2024-01-25T00:40:11;94908.23;;;1.21;100.00
43553;BME280;29153;42.696;23.218;2024-01-25T00:42:45;94917.66;;;1.22;100.00
43553;BME280;29153;42.696;23.218;2024-01-25T00:45:14;94918.70;;;1.08;100.00
43553;BME280;29153;42.696;23.218;2024-01-25T00:47:42;94917.55;;;1.20;100.00
43553;BME280;29153;42.696;23.218;2024-01-25T00:50:10;94920.47;;;1.21;100.00
43553;BME280;29153;42.696;23.218;2024-01-25T00:52:39;94921.27;;;1.28;100.00
43553;BME280;29153;42.696;23.218;2024-01-25T00:55:07;94872.17;;;0.99;100.00
43553;BME280;29153;42.696;23.218;2024-01-25T00:57:35;94918.93;;;1.29;100.00
43553;BME280;29153;42.696;23.218;2024-01-25T01:00:03;94921.95;;;1.32;100.00
43553;BME280;29153;42.696;23.218;2024-01-25T01:02:35;94910.22;;;1.32;100.00
43553;BME280;29153;42.696;23.218;2024-01-25T01:05:02;94910.87;;;1.37;100.00
43553;BME280;29153;42.696;23.218;2024-01-25T01:07:30;94915.58;;;1.44;100.00
43553;BME280;29153;42.696;23.218;2024-01-25T01:09:57;94912.34;;;1.49;100.00
43553;BME280;29153;42.696;23.218;2024-01-25T01:12:25;94917.27;;;1.48;100.00
43553;BME280;29153;42.696;23.218;2024-01-25T01:14:52;94910.05;;;1.43;100.00
43553;BME280;29153;42.696;23.218;2024-01-25T01:17:20;94911.34;;;1.50;100.00
43553;BME280;29153;42.696;23.218;2024-01-25T01:19:48;94902.29;;;1.52;100.00
43553;BME280;29153;42.696;23.218;2024-01-25T01:22:16;94875.08;;;1.51;100.00
43553;BME280;29153;42.696;23.218;2024-01-25T01:24:43;94872.75;;;1.58;100.00
43553;BME280;29153;42.696;23.218;2024-01-25T01:27:11;94852.61;;;1.50;100.00
43553;BME280;29153;42.696;23.218;2024-01-25T01:29:39;94856.91;;;1.53;100.00
43553;BME280;29153;42.696;23.218;2024-01-25T01:32:07;94849.63;;;1.62;100.00
43553;BME280;29153;42.696;23.218;2024-01-25T01:34:35;94840.44;;;1.68;100.00
43553;BME280;29153;42.696;23.218;2024-01-25T01:37:03;94857.03;;;1.80;100.00
43553;BME280;29153;42.696;23.218;2024-01-25T01:39:31;94844.39;;;2.09;100.00
43553;BME280;29153;42.696;23.218;2024-01-25T01:41:59;94854.08;;;2.51;100.00
43553;BME280;29153;42.696;23.218;2024-01-25T01:44:28;94855.41;;;2.88;100.00
43553;BME280;29153;42.696;23.218;2024-01-25T01:46:57;94857.95;;;3.21;100.00
43553;BME280;29153;42.696;23.218;2024-01-25T01:49:26;94851.98;;;3.42;100.00
43553;BME280;29153;42.696;23.218;2024-01-25T01:51:54;94863.38;;;3.77;98.06
43553;BME280;29153;42.696;23.218;2024-01-25T01:54:22;94867.91;;;4.00;95.85
43553;BME280;29153;42.696;23.218;2024-01-25T01:56:50;94863.81;;;4.04;94.20
43553;BME280;29153;42.696;23.218;2024-01-25T01:59:18;94856.47;;;4.15;92.88
43553;BME280;29153;42.696;23.218;2024-01-25T02:01:47;94851.09;;;4.19;94.22
43553;BME280;29153;42.696;23.218;2024-01-25T02:04:14;94843.16;;;4.28;94.99
43553;BME280;29153;42.696;23.218;2024-01-25T02:06:42;94847.56;;;4.37;95.09
43553;BME280;29153;42.696;23.218;2024-01-25T02:09:12;94833.89;;;4.46;94.92
43553;BME280;29153;42.696;23.218;2024-01-25T02:11:40;94832.70;;;4.51;94.59
43553;BME280;29153;42.696;23.218;2024-01-25T02:14:08;94834.86;;;4.54;94.35
43553;BME280;29153;42.696;23.218;2024-01-25T02:16:37;94839.03;;;4.65;94.06
43553;BME280;29153;42.696;23.218;2024-01-25T02:19:05;94835.77;;;4.72;93.77
43553;BME280;29153;42.696;23.218;2024-01-25T02:21:32;94843.47;;;4.76;93.37
43553;BME280;29153;42.696;23.218;2024-01-25T02:24:00;94846.72;;;4.80;92.73
43553;BME280;29153;42.696;23.218;2024-01-25T02:26:27;94834.22;;;4.85;92.26
43553;BME280;29153;42.696;23.218;2024-01-25T02:28:55;94829.73;;;4.83;92.25
43553;BME280;29153;42.696;23.218;2024-01-25T02:31:23;94831.23;;;4.93;91.05
43553;BME280;29153;42.696;23.218;2024-01-25T02:33:50;94756.63;;;4.51;91.05
43553;BME280;29153;42.696;23.218;2024-01-25T02:36:18;94832.59;;;5.07;90.41
43553;BME280;29153;42.696;23.218;2024-01-25T02:38:45;94837.73;;;5.02;90.33
43553;BME280;29153;42.696;23.218;2024-01-25T02:41:13;94844.27;;;5.14;89.22
43553;BME280;29153;42.696;23.218;2024-01-25T02:43:41;94846.45;;;5.17;89.38
43553;BME280;29153;42.696;23.218;2024-01-25T02:46:08;94835.04;;;5.11;89.27
43553;BME280;29153;42.696;23.218;2024-01-25T02:48:36;94832.41;;;5.11;88.90
43553;BME280;29153;42.696;23.218;2024-01-25T02:51:04;94829.97;;;5.07;89.28
43553;BME280;29153;42.696;23.218;2024-01-25T02:53:31;94812.06;;;5.04;89.20
43553;BME280;29153;42.696;23.218;2024-01-25T02:55:59;94826.33;;;5.08;89.20
43553;BME280;29153;42.696;23.218;2024-01-25T02:58:27;94827.34;;;5.07;89.14
43553;BME280;29153;42.696;23.218;2024-01-25T03:00:54;94823.55;;;5.15;89.12
43553;BME280;29153;42.696;23.218;2024-01-25T03:03:22;94828.98;;;5.11;89.42
43553;BME280;29153;42.696;23.218;2024-01-25T03:05:52;94836.24;;;5.06;90.13
43553;BME280;29153;42.696;23.218;2024-01-25T03:08:20;94838.53;;;5.02;90.21
43553;BME280;29153;42.696;23.218;2024-01-25T03:10:48;94841.78;;;5.07;90.12
43553;BME280;29153;42.696;23.218;2024-01-25T03:13:16;94835.11;;;5.02;90.61
43553;BME280;29153;42.696;23.218;2024-01-25T03:15:44;94840.58;;;5.12;91.06
43553;BME280;29153;42.696;23.218;2024-01-25T03:18:12;94823.22;;;5.11;91.43
43553;BME280;29153;42.696;23.218;2024-01-25T03:20:39;94821.80;;;5.06;92.14
43553;BME280;29153;42.696;23.218;2024-01-25T03:23:07;94817.23;;;5.13;92.29
43553;BME280;29153;42.696;23.218;2024-01-25T03:25:35;94827.89;;;5.21;92.33
43553;BME280;29153;42.696;23.218;2024-01-25T03:28:02;94826.18;;;5.15;92.42
43553;BME280;29153;42.696;23.218;2024-01-25T03:30:32;94827.27;;;5.16;92.04
43553;BME280;29153;42.696;23.218;2024-01-25T03:32:59;94827.82;;;5.18;91.75
43553;BME280;29153;42.696;23.218;2024-01-25T03:35:27;94827.20;;;5.14;91.97
43553;BME280;29153;42.696;23.218;2024-01-25T03:37:54;94823.38;;;5.19;91.62
43553;BME280;29153;42.696;23.218;2024-01-25T03:40:22;94801.52;;;5.16;90.64
43553;BME280;29153;42.696;23.218;2024-01-25T03:42:50;94796.23;;;5.13;90.57
43553;BME280;29153;42.696;23.218;2024-01-25T03:45:17;94799.88;;;5.12;90.23
43553;BME280;29153;42.696;23.218;2024-01-25T03:47:45;94809.55;;;5.09;90.29
43553;BME280;29153;42.696;23.218;2024-01-25T03:50:13;94805.94;;;5.01;90.85
43553;BME280;29153;42.696;23.218;2024-01-25T03:52:40;94804.63;;;5.01;90.86
43553;BME280;29153;42.696;23.218;2024-01-25T03:55:08;94802.11;;;5.06;90.59
43553;BME280;29153;42.696;23.218;2024-01-25T03:57:35;94785.92;;;5.09;90.90
43553;BME280;29153;42.696;23.218;2024-01-25T04:00:05;94780.59;;;5.07;90.64
43553;BME280;29153;42.696;23.218;2024-01-25T04:02:33;94767.44;;;5.04;90.55
43553;BME280;29153;42.696;23.218;2024-01-25T04:05:01;94763.02;;;5.07;90.54
43553;BME280;29153;42.696;23.218;2024-01-25T04:07:28;94762.73;;;5.06;90.51
43553;BME280;29153;42.696;23.218;2024-01-25T04:09:56;94768.92;;;5.14;89.88
43553;BME280;29153;42.696;23.218;2024-01-25T04:12:24;94764.19;;;5.14;89.23
43553;BME280;29153;42.696;23.218;2024-01-25T04:14:51;94768.75;;;5.04;89.12
43553;BME280;29153;42.696;23.218;2024-01-25T04:17:19;94771.00;;;5.12;89.20
43553;BME280;29153;42.696;23.218;2024-01-25T04:19:46;94772.78;;;5.09;89.07
43553;BME280;29153;42.696;23.218;2024-01-25T04:22:14;94775.13;;;5.08;89.21
43553;BME280;29153;42.696;23.218;2024-01-25T04:24:42;94776.70;;;4.95;89.79
43553;BME280;29153;42.696;23.218;2024-01-25T04:27:10;94764.20;;;4.88;90.11
43553;BME280;29153;42.696;23.218;2024-01-25T04:29:39;94773.78;;;4.94;89.84
43553;BME280;29153;42.696;23.218;2024-01-25T04:32:09;94769.62;;;4.84;89.82
43553;BME280;29153;42.696;23.218;2024-01-25T04:34:36;94767.30;;;4.85;89.65
43553;BME280;29153;42.696;23.218;2024-01-25T04:37:04;94766.45;;;4.82;89.42
43553;BME280;29153;42.696;23.218;2024-01-25T04:39:32;94775.82;;;4.78;89.56
43553;BME280;29153;42.696;23.218;2024-01-25T04:41:59;94790.66;;;4.72;89.79
43553;BME280;29153;42.696;23.218;2024-01-25T04:44:27;94808.98;;;4.70;89.76
43553;BME280;29153;42.696;23.218;2024-01-25T04:46:54;94819.73;;;4.71;88.57
43553;BME280;29153;42.696;23.218;2024-01-25T04:49:23;94816.28;;;4.56;89.51
43553;BME280;29153;42.696;23.218;2024-01-25T04:51:51;94814.97;;;4.56;89.28
43553;BME280;29153;42.696;23.218;2024-01-25T04:54:18;94808.13;;;4.43;90.30
43553;BME280;29153;42.696;23.218;2024-01-25T04:56:46;94810.13;;;4.27;91.61
43553;BME280;29153;42.696;23.218;2024-01-25T04:59:13;94829.66;;;4.22;91.54
43553;BME280;29153;42.696;23.218;2024-01-25T05:01:41;94830.08;;;4.07;91.72
43553;BME280;29153;42.696;23.218;2024-01-25T05:04:09;94848.30;;;4.02;91.92
43553;BME280;29153;42.696;23.218;2024-01-25T05:06:36;94860.42;;;3.94;90.63
43553;BME280;29153;42.696;23.218;2024-01-25T05:09:04;94854.33;;;3.91;90.77
43553;BME280;29153;42.696;23.218;2024-01-25T05:11:33;94837.27;;;3.80;91.66
43553;BME280;29153;42.696;23.218;2024-01-25T05:14:01;94837.83;;;3.82;92.14
43553;BME280;29153;42.696;23.218;2024-01-25T05:16:28;94843.63;;;3.93;92.51
43553;BME280;29153;42.696;23.218;2024-01-25T05:18:56;94838.66;;;4.15;91.29
43553;BME280;29153;42.696;23.218;2024-01-25T05:21:24;94849.16;;;4.26;90.01
43553;BME280;29153;42.696;23.218;2024-01-25T05:23:51;94872.72;;;4.47;88.99
43553;BME280;29153;42.696;23.218;2024-01-25T05:26:19;94864.81;;;4.56;88.28
43553;BME280;29153;42.696;23.218;2024-01-25T05:28:47;94867.39;;;4.53;88.49
43553;BME280;29153;42.696;23.218;2024-01-25T05:31:15;94882.70;;;4.47;88.84
43553;BME280;29153;42.696;23.218;2024-01-25T05:33:42;94888.00;;;4.50;88.83
43553;BME280;29153;42.696;23.218;2024-01-25T05:36:10;94891.21;;;4.52;88.51
43553;BME280;29153;42.696;23.218;2024-01-25T05:38:39;94897.65;;;4.58;88.12
43553;BME280;29153;42.696;23.218;2024-01-25T05:41:07;94890.62;;;4.50;88.50
43553;BME280;29153;42.696;23.218;2024-01-25T05:43:34;94904.71;;;4.46;89.17
43553;BME280;29153;42.696;23.218;2024-01-25T05:46:02;94915.07;;;4.41;89.31
43553;BME280;29153;42.696;23.218;2024-01-25T05:48:30;94911.64;;;4.41;89.82
43553;BME280;29153;42.696;23.218;2024-01-25T05:50:58;94912.74;;;4.42;90.10
43553;BME280;29153;42.696;23.218;2024-01-25T05:53:27;94911.89;;;4.39;89.58
43553;BME280;29153;42.696;23.218;2024-01-25T05:55:54;94926.88;;;4.41;90.04
43553;BME280;29153;42.696;23.218;2024-01-25T05:58:22;94925.69;;;4.46;89.31
43553;BME280;29153;42.696;23.218;2024-01-25T06:00:50;94922.31;;;4.57;87.88
43553;BME280;29153;42.696;23.218;2024-01-25T06:03:17;94912.83;;;4.56;87.69
43553;BME280;29153;42.696;23.218;2024-01-25T06:05:45;94921.84;;;4.49;88.25
43553;BME280;29153;42.696;23.218;2024-01-25T06:08:12;94932.63;;;4.41;88.46
43553;BME280;29153;42.696;23.218;2024-01-25T06:10:40;94930.92;;;4.35;89.80
43553;BME280;29153;42.696;23.218;2024-01-25T06:13:08;94914.50;;;4.28;89.85
43553;BME280;29153;42.696;23.218;2024-01-25T06:15:35;94912.44;;;4.30;90.00
43553;BME280;29153;42.696;23.218;2024-01-25T06:18:03;94914.37;;;4.23;90.83
43553;BME280;29153;42.696;23.218;2024-01-25T06:20:31;94926.83;;;4.18;91.56
43553;BME280;29153;42.696;23.218;2024-01-25T06:22:59;94919.84;;;4.12;92.40
43553;BME280;29153;42.696;23.218;2024-01-25T06:25:26;94929.53;;;4.11;91.73
43553;BME280;29153;42.696;23.218;2024-01-25T06:27:56;94929.94;;;4.06;92.23
43553;BME280;29153;42.696;23.218;2024-01-25T06:30:26;94929.61;;;4.14;92.02
43553;BME280;29153;42.696;23.218;2024-01-25T06:32:53;94919.37;;;4.24;91.92
43553;BME280;29153;42.696;23.218;2024-01-25T06:35:21;94841.94;;;3.68;92.06
43553;BME280;29153;42.696;23.218;2024-01-25T06:37:49;94923.30;;;4.24;92.42
43553;BME280;29153;42.696;23.218;2024-01-25T06:40:17;94913.56;;;4.22;92.46
43553;BME280;29153;42.696;23.218;2024-01-25T06:42:44;94898.39;;;4.24;92.25
43553;BME280;29153;42.696;23.218;2024-01-25T06:45:12;94908.72;;;4.28;93.15
43553;BME280;29153;42.696;23.218;2024-01-25T06:47:40;94920.73;;;4.36;91.72
43553;BME280;29153;42.696;23.218;2024-01-25T06:50:08;94927.92;;;4.40;92.12
43553;BME280;29153;42.696;23.218;2024-01-25T06:52:35;94931.20;;;4.56;90.60
43553;BME280;29153;42.696;23.218;2024-01-25T06:55:03;94932.22;;;4.55;90.65
43553;BME280;29153;42.696;23.218;2024-01-25T06:57:30;94941.14;;;4.45;91.43
43553;BME280;29153;42.696;23.218;2024-01-25T06:59:58;94904.36;;;4.10;91.77
43553;BME280;29153;42.696;23.218;2024-01-25T07:02:26;94944.06;;;4.58;90.35
43553;BME280;29153;42.696;23.218;2024-01-25T07:04:53;94949.02;;;4.78;89.54
43553;BME280;29153;42.696;23.218;2024-01-25T07:07:22;94938.65;;;4.83;88.67
43553;BME280;29153;42.696;23.218;2024-01-25T07:09:49;94955.70;;;4.83;89.20
43553;BME280;29153;42.696;23.218;2024-01-25T07:12:17;94936.11;;;4.88;89.23
43553;BME280;29153;42.696;23.218;2024-01-25T07:14:45;94929.84;;;4.89;89.43
43553;BME280;29153;42.696;23.218;2024-01-25T07:17:12;94921.58;;;4.94;89.60
43553;BME280;29153;42.696;23.218;2024-01-25T07:19:40;94934.75;;;4.97;89.03
43553;BME280;29153;42.696;23.218;2024-01-25T07:22:08;94917.63;;;5.06;87.80
43553;BME280;29153;42.696;23.218;2024-01-25T07:24:35;94934.70;;;5.06;87.74
43553;BME280;29153;42.696;23.218;2024-01-25T07:27:03;94930.88;;;5.11;86.94
43553;BME280;29153;42.696;23.218;2024-01-25T07:29:30;94943.15;;;5.20;86.27
43553;BME280;29153;42.696;23.218;2024-01-25T07:31:58;94929.97;;;5.17;84.91
43553;BME280;29153;42.696;23.218;2024-01-25T07:34:26;94931.78;;;5.28;84.13
43553;BME280;29153;42.696;23.218;2024-01-25T07:36:53;94925.50;;;5.29;84.61
43553;BME280;29153;42.696;23.218;2024-01-25T07:39:21;94930.19;;;5.16;84.65
43553;BME280;29153;42.696;23.218;2024-01-25T07:41:48;94932.51;;;5.26;84.21
43553;BME280;29153;42.696;23.218;2024-01-25T07:44:16;94922.25;;;5.25;84.24
43553;BME280;29153;42.696;23.218;2024-01-25T07:46:45;94929.66;;;5.28;84.67
43553;BME280;29153;42.696;23.218;2024-01-25T07:49:13;94925.19;;;5.40;83.74
43553;BME280;29153;42.696;23.218;2024-01-25T07:51:41;94931.02;;;5.42;83.85
43553;BME280;29153;42.696;23.218;2024-01-25T07:54:09;94933.47;;;5.46;83.50
43553;BME280;29153;42.696;23.218;2024-01-25T07:56:36;94927.08;;;5.42;83.29
43553;BME280;29153;42.696;23.218;2024-01-25T07:59:04;94933.44;;;5.58;81.51
43553;BME280;29153;42.696;23.218;2024-01-25T08:01:32;94937.53;;;5.65;81.27
43553;BME280;29153;42.696;23.218;2024-01-25T08:03:59;94937.52;;;5.77;80.59
43553;BME280;29153;42.696;23.218;2024-01-25T08:06:27;94938.06;;;5.79;80.22
43553;BME280;29153;42.696;23.218;2024-01-25T08:08:54;94927.08;;;5.82;80.34
43553;BME280;29153;42.696;23.218;2024-01-25T08:11:22;94936.57;;;5.83;80.06
43553;BME280;29153;42.696;23.218;2024-01-25T08:13:50;94938.86;;;5.91;79.86
43553;BME280;29153;42.696;23.218;2024-01-25T08:16:17;94936.11;;;5.98;79.37
43553;BME280;29153;42.696;23.218;2024-01-25T08:18:49;94937.97;;;6.00;79.41
43553;BME280;29153;42.696;23.218;2024-01-25T08:21:17;94948.23;;;5.99;79.14
43553;BME280;29153;42.696;23.218;2024-01-25T08:23:44;94956.73;;;6.03;79.13
43553;BME280;29153;42.696;23.218;2024-01-25T08:26:12;94953.38;;;6.08;77.92
43553;BME280;29153;42.696;23.218;2024-01-25T08:28:40;94950.39;;;6.16;78.26
43553;BME280;29153;42.696;23.218;2024-01-25T08:31:09;94948.89;;;6.20;78.53
43553;BME280;29153;42.696;23.218;2024-01-25T08:33:39;94937.56;;;6.19;78.80
43553;BME280;29153;42.696;23.218;2024-01-25T08:36:17;94939.63;;;6.31;78.68
43553;BME280;29153;42.696;23.218;2024-01-25T08:38:43;94945.07;;;6.42;78.76
43553;BME280;29153;42.696;23.218;2024-01-25T08:41:11;94951.36;;;6.40;78.01
43553;BME280;29153;42.696;23.218;2024-01-25T08:43:40;94957.97;;;6.43;76.96
43553;BME280;29153;42.696;23.218;2024-01-25T08:46:08;94957.01;;;6.32;76.72
43553;BME280;29153;42.696;23.218;2024-01-25T08:48:36;94972.41;;;6.40;77.12
43553;BME280;29153;42.696;23.218;2024-01-25T08:51:04;94971.39;;;6.42;77.63
43553;BME280;29153;42.696;23.218;2024-01-25T08:53:31;94963.30;;;6.31;77.66
43553;BME280;29153;42.696;23.218;2024-01-25T08:56:00;94960.38;;;6.30;78.28
43553;BME280;29153;42.696;23.218;2024-01-25T08:58:27;94965.52;;;6.37;77.56
43553;BME280;29153;42.696;23.218;2024-01-25T09:00:55;94966.67;;;6.44;77.22
43553;BME280;29153;42.696;23.218;2024-01-25T09:03:22;94960.44;;;6.33;77.18
43553;BME280;29153;42.696;23.218;2024-01-25T09:05:50;94962.50;;;6.31;77.04
43553;BME280;29153;42.696;23.218;2024-01-25T09:08:18;94953.64;;;6.20;78.29
43553;BME280;29153;42.696;23.218;2024-01-25T09:10:45;94953.98;;;6.12;78.52
43553;BME280;29153;42.696;23.218;2024-01-25T09:13:13;94950.91;;;6.15;77.86
43553;BME280;29153;42.696;23.218;2024-01-25T09:15:40;94949.97;;;6.07;78.65
43553;BME280;29153;42.696;23.218;2024-01-25T09:18:09;94946.44;;;6.02;79.76
43553;BME280;29153;42.696;23.218;2024-01-25T09:20:37;94942.92;;;6.10;79.24
43553;BME280;29153;42.696;23.218;2024-01-25T09:23:05;94943.75;;;6.13;79.87
43553;BME280;29153;42.696;23.218;2024-01-25T09:25:32;94945.78;;;6.23;79.65
43553;BME280;29153;42.696;23.218;2024-01-25T09:28:00;94933.78;;;6.29;80.81
43553;BME280;29153;42.696;23.218;2024-01-25T09:30:28;94935.26;;;6.23;80.29
43553;BME280;29153;42.696;23.218;2024-01-25T09:32:55;94938.43;;;6.39;79.07
43553;BME280;29153;42.696;23.218;2024-01-25T09:35:23;94883.25;;;6.27;79.91
43553;BME280;29153;42.696;23.218;2024-01-25T09:37:51;94933.16;;;6.70;76.69
43553;BME280;29153;42.696;23.218;2024-01-25T09:40:19;94929.22;;;6.70;75.96
43553;BME280;29153;42.696;23.218;2024-01-25T09:42:52;94921.69;;;6.76;76.14
43553;BME280;29153;42.696;23.218;2024-01-25T09:45:20;94922.60;;;6.84;76.09
43553;BME280;29153;42.696;23.218;2024-01-25T09:47:48;94918.91;;;6.68;76.18
43553;BME280;29153;42.696;23.218;2024-01-25T09:50:16;94915.05;;;6.73;76.05
43553;BME280;29153;42.696;23.218;2024-01-25T09:52:44;94904.43;;;6.85;75.80
43553;BME280;29153;42.696;23.218;2024-01-25T09:55:14;94898.62;;;6.83;75.88
43553;BME280;29153;42.696;23.218;2024-01-25T09:57:45;94897.84;;;6.85;75.46
43553;BME280;29153;42.696;23.218;2024-01-25T10:00:14;94891.21;;;6.80;75.49
43553;BME280;29153;42.696;23.218;2024-01-25T10:02:42;94882.62;;;6.87;75.66
43553;BME280;29153;42.696;23.218;2024-01-25T10:05:09;94868.47;;;6.93;74.50
43553;BME280;29153;42.696;23.218;2024-01-25T10:07:41;94879.55;;;6.93;74.80
43553;BME280;29153;42.696;23.218;2024-01-25T10:10:10;94875.72;;;7.03;74.11
43553;BME280;29153;42.696;23.218;2024-01-25T10:12:39;94875.03;;;6.91;73.66
43553;BME280;29153;42.696;23.218;2024-01-25T10:15:08;94869.19;;;7.05;74.12
43553;BME280;29153;42.696;23.218;2024-01-25T10:17:35;94870.38;;;7.14;74.12
43553;BME280;29153;42.696;23.218;2024-01-25T10:20:05;94863.52;;;7.16;73.10
43553;BME280;29153;42.696;23.218;2024-01-25T10:22:34;94865.41;;;7.18;73.76
43553;BME280;29153;42.696;23.218;2024-01-25T10:25:03;94864.33;;;7.16;74.90
43553;BME280;29153;42.696;23.218;2024-01-25T10:27:31;94867.24;;;7.17;74.72
43553;BME280;29153;42.696;23.218;2024-01-25T10:29:58;94863.31;;;7.20;74.65
43553;BME280;29153;42.696;23.218;2024-01-25T10:32:27;94867.42;;;7.32;74.04
43553;BME280;29153;42.696;23.218;2024-01-25T10:34:54;94867.92;;;7.29;73.42
43553;BME280;29153;42.696;23.218;2024-01-25T10:37:23;94875.90;;;7.35;73.61
43553;BME280;29153;42.696;23.218;2024-01-25T10:39:51;94862.51;;;7.39;73.44
43553;BME280;29153;42.696;23.218;2024-01-25T10:42:20;94869.81;;;7.31;72.70
43553;BME280;29153;42.696;23.218;2024-01-25T10:44:47;94865.92;;;7.17;72.61
43553;BME280;29153;42.696;23.218;2024-01-25T10:47:15;94847.59;;;7.27;72.38
43553;BME280;29153;42.696;23.218;2024-01-25T10:49:44;94845.17;;;7.23;72.17
43553;BME280;29153;42.696;23.218;2024-01-25T10:52:13;94839.37;;;7.21;72.26
43553;BME280;29153;42.696;23.218;2024-01-25T10:54:42;94849.41;;;7.24;70.77
43553;BME280;29153;42.696;23.218;2024-01-25T10:57:10;94835.73;;;7.27;70.98
43553;BME280;29153;42.696;23.218;2024-01-25T10:59:38;94842.84;;;7.05;70.30
43553;BME280;29153;42.696;23.218;2024-01-25T11:02:06;94847.86;;;7.07;70.76
43553;BME280;29153;42.696;23.218;2024-01-25T11:04:35;94841.53;;;7.05;70.62
43553;BME280;29153;42.696;23.218;2024-01-25T11:07:09;94832.03;;;7.04;71.80
43553;BME280;29153;42.696;23.218;2024-01-25T11:09:37;94821.28;;;7.08;71.90
43553;BME280;29153;42.696;23.218;2024-01-25T11:12:13;94822.16;;;7.14;71.55
43553;BME280;29153;42.696;23.218;2024-01-25T11:14:43;94813.45;;;7.13;70.79
43553;BME280;29153;42.696;23.218;2024-01-25T11:17:21;94812.78;;;7.23;70.34
43553;BME280;29153;42.696;23.218;2024-01-25T11:19:50;94800.34;;;7.18;71.48
43553;BME280;29153;42.696;23.218;2024-01-25T11:22:17;94798.25;;;7.20;71.53
43553;BME280;29153;42.696;23.218;2024-01-25T11:24:46;94791.08;;;7.16;73.47
43553;BME280;29153;42.696;23.218;2024-01-25T11:27:15;94796.70;;;7.22;73.51
43553;BME280;29153;42.696;23.218;2024-01-25T11:29:43;94794.34;;;7.23;73.99
43553;BME280;29153;42.696;23.218;2024-01-25T11:32:11;94788.42;;;7.13;72.98
43553;BME280;29153;42.696;23.218;2024-01-25T11:34:39;94804.53;;;6.98;71.41
43553;BME280;29153;42.696;23.218;2024-01-25T11:37:07;94797.17;;;6.78;73.21
43553;BME280;29153;42.696;23.218;2024-01-25T11:39:35;94791.62;;;6.77;74.22
43553;BME280;29153;42.696;23.218;2024-01-25T11:42:02;94804.00;;;6.57;74.92
43553;BME280;29153;42.696;23.218;2024-01-25T11:44:30;94800.28;;;6.56;75.46
43553;BME280;29153;42.696;23.218;2024-01-25T11:46:58;94788.61;;;6.49;73.95
43553;BME280;29153;42.696;23.218;2024-01-25T11:49:25;94794.80;;;6.40;74.26
43553;BME280;29153;42.696;23.218;2024-01-25T11:51:53;94790.67;;;6.47;74.16
43553;BME280;29153;42.696;23.218;2024-01-25T11:54:21;94775.73;;;6.33;74.96
43553;BME280;29153;42.696;23.218;2024-01-25T11:56:48;94772.28;;;6.30;76.07
43553;BME280;29153;42.696;23.218;2024-01-25T11:59:16;94777.83;;;6.31;76.54
43553;BME280;29153;42.696;23.218;2024-01-25T12:01:44;94784.30;;;6.43;76.08
43553;BME280;29153;42.696;23.218;2024-01-25T12:04:12;94791.19;;;6.47;75.11
43553;BME280;29153;42.696;23.218;2024-01-25T12:06:39;94792.25;;;6.46;75.22
43553;BME280;29153;42.696;23.218;2024-01-25T12:09:11;94803.16;;;6.37;73.96
43553;BME280;29153;42.696;23.218;2024-01-25T12:11:40;94809.73;;;6.37;73.23
43553;BME280;29153;42.696;23.218;2024-01-25T12:14:11;94810.11;;;6.27;74.65
43553;BME280;29153;42.696;23.218;2024-01-25T12:16:39;94798.90;;;6.17;74.70
43553;BME280;29153;42.696;23.218;2024-01-25T12:19:07;94791.50;;;6.14;75.34
43553;BME280;29153;42.696;23.218;2024-01-25T12:21:35;94777.95;;;6.06;76.24
43553;BME280;29153;42.696;23.218;2024-01-25T12:24:03;94771.48;;;6.13;75.26
43553;BME280;29153;42.696;23.218;2024-01-25T12:26:38;94762.48;;;6.09;75.68
43553;BME280;29153;42.696;23.218;2024-01-25T12:29:03;94756.67;;;6.24;75.46
43553;BME280;29153;42.696;23.218;2024-01-25T12:31:31;94759.75;;;6.37;76.42
43553;BME280;29153;42.696;23.218;2024-01-25T12:34:00;94753.32;;;6.48;74.87
43553;BME280;29153;42.696;23.218;2024-01-25T12:36:27;94754.09;;;6.65;73.42
43553;BME280;29153;42.696;23.218;2024-01-25T12:38:55;94754.98;;;6.73;74.36
43553;BME280;29153;42.696;23.218;2024-01-25T12:41:22;94748.33;;;6.87;71.81
43553;BME280;29153;42.696;23.218;2024-01-25T12:43:50;94737.52;;;6.86;72.31
43553;BME280;29153;42.696;23.218;2024-01-25T12:46:18;94730.28;;;6.98;73.37
43553;BME280;29153;42.696;23.218;2024-01-25T12:48:45;94719.80;;;7.01;70.84
43553;BME280;29153;42.696;23.218;2024-01-25T12:51:13;94725.89;;;7.06;71.44
43553;BME280;29153;42.696;23.218;2024-01-25T12:53:41;94717.36;;;7.18;71.59
43553;BME280;29153;42.696;23.218;2024-01-25T12:56:08;94717.61;;;7.19;70.56
43553;BME280;29153;42.696;23.218;2024-01-25T12:58:36;94708.55;;;7.10;69.07
43553;BME280;29153;42.696;23.218;2024-01-25T13:01:04;94701.67;;;7.07;70.70